createdAt,value
2018-09-17T00:01:23.468Z,3.50
2018-09-17T00:03:51.609Z,3.52
2018-09-17T00:06:19.617Z,3.60
2018-09-17T00:08:54.463Z,3.80
2018-09-17T00:11:22.487Z,3.92
2018-09-17T00:13:50.503Z,4.23
2018-09-17T00:16:18.571Z,3.80
2018-09-17T00:18:46.630Z,4.00
2018-09-17T00:21:14.680Z,3.83
2018-09-17T00:23:42.829Z,4.47
2018-09-17T00:26:10.878Z,4.40
2018-09-17T00:28:38.950Z,4.45
2018-09-17T00:31:07.415Z,4.53
2018-09-17T00:33:35.520Z,4.28
2018-09-17T00:36:03.800Z,4.35
2018-09-17T00:38:31.856Z,3.92
2018-09-17T00:40:59.904Z,4.12
2018-09-17T00:43:27.929Z,4.37
2018-09-17T00:45:55.968Z,4.55
2018-09-17T00:48:24.024Z,4.12
2018-09-17T00:50:52.103Z,4.33
2018-09-17T00:53:20.377Z,4.70
2018-09-17T00:55:48.410Z,4.90
2018-09-17T00:58:16.436Z,4.30
2018-09-17T01:00:44.478Z,4.30
2018-09-17T01:03:12.491Z,4.65
2018-09-17T01:05:40.516Z,4.78
2018-09-17T01:08:08.969Z,4.80
2018-09-17T01:10:36.991Z,4.87
2018-09-17T01:13:05.010Z,5.03
2018-09-17T01:15:33.231Z,5.20
2018-09-17T01:18:01.250Z,4.83
2018-09-17T01:20:29.282Z,5.37
2018-09-17T01:22:57.431Z,4.80
2018-09-17T01:25:25.457Z,4.95
2018-09-17T01:27:53.522Z,5.10
2018-09-17T01:30:21.771Z,4.90
2018-09-17T01:32:50.069Z,4.58
2018-09-17T01:35:18.120Z,4.58
2018-09-17T01:37:46.465Z,4.90
2018-09-17T01:40:14.552Z,5.35
2018-09-17T01:42:42.698Z,5.42
2018-09-17T01:45:11.002Z,4.85
2018-09-17T01:47:39.040Z,5.22
2018-09-17T01:50:07.365Z,5.25
2018-09-17T01:52:35.507Z,5.28
2018-09-17T01:55:03.543Z,4.53
2018-09-17T01:57:31.651Z,4.90
2018-09-17T01:59:59.687Z,5.00
2018-09-17T02:02:27.708Z,4.47
2018-09-17T02:04:55.848Z,5.58
2018-09-17T02:07:23.987Z,4.62
2018-09-17T02:09:52.074Z,4.67
2018-09-17T02:12:20.099Z,5.05
2018-09-17T02:14:48.480Z,4.90
2018-09-17T02:17:16.511Z,5.22
2018-09-17T02:19:44.555Z,5.83
2018-09-17T02:22:12.766Z,5.15
2018-09-17T02:24:40.776Z,5.78
2018-09-17T02:27:08.800Z,5.40
2018-09-17T02:29:36.862Z,4.80
2018-09-17T02:32:04.879Z,5.20
2018-09-17T02:34:33.139Z,4.97
2018-09-17T02:37:01.279Z,5.33
2018-09-17T02:39:29.329Z,5.42
2018-09-17T02:41:57.359Z,5.37
2018-09-17T02:44:25.657Z,4.85
2018-09-17T02:46:53.691Z,5.85
2018-09-17T02:49:21.711Z,5.78
2018-09-17T02:51:49.842Z,5.67
2018-09-17T02:54:17.991Z,5.20
2018-09-17T02:56:46.062Z,5.45
2018-09-17T02:59:14.100Z,5.87
2018-09-17T03:01:42.148Z,5.70
2018-09-17T03:04:10.233Z,6.20
2018-09-17T03:06:38.473Z,5.22
2018-09-17T03:09:08.089Z,5.75
2018-09-17T03:11:36.234Z,6.50
2018-09-17T03:14:04.296Z,5.53
2018-09-17T03:16:32.354Z,6.05
2018-09-17T03:19:00.519Z,5.72
2018-09-17T03:21:28.537Z,5.60
2018-09-17T03:23:56.607Z,5.65
2018-09-17T03:26:24.699Z,6.50
2018-09-17T03:28:52.946Z,5.65
2018-09-17T03:31:21.024Z,6.22
2018-09-17T03:36:48.090Z,5.90
2018-09-17T03:39:16.253Z,5.60
2018-09-17T03:41:44.278Z,6.12
2018-09-17T03:44:12.319Z,5.80
2018-09-17T03:46:40.665Z,5.83
2018-09-17T03:49:08.663Z,5.60
2018-09-17T03:51:36.767Z,6.15
2018-09-17T03:54:04.884Z,6.65
2018-09-17T03:56:32.870Z,6.45
2018-09-17T03:59:00.918Z,6.83
2018-09-17T04:01:28.999Z,5.67
2018-09-17T04:03:56.990Z,4.95
2018-09-17T04:06:24.989Z,6.33
2018-09-17T04:08:53.460Z,6.30
2018-09-17T04:11:21.687Z,5.75
2018-09-17T04:13:49.715Z,6.30
2018-09-17T04:16:18.043Z,6.12
2018-09-17T04:18:46.159Z,6.35
2018-09-17T04:21:14.198Z,6.00
2018-09-17T04:23:42.262Z,6.57
2018-09-17T04:26:11.445Z,5.97
2018-09-17T04:28:39.827Z,6.10
2018-09-17T04:31:07.861Z,6.20
2018-09-17T04:33:37.710Z,6.87
2018-09-17T04:36:05.852Z,6.83
2018-09-17T04:38:34.258Z,6.00
2018-09-17T04:41:02.473Z,6.70
2018-09-17T04:43:30.712Z,6.77
2018-09-17T04:45:58.998Z,6.33
2018-09-17T04:48:27.292Z,6.20
2018-09-17T04:50:55.535Z,6.43
2018-09-17T04:53:23.656Z,6.57
2018-09-17T04:55:51.727Z,5.67
2018-09-17T04:58:20.266Z,5.80
2018-09-17T05:00:48.585Z,5.70
2018-09-17T05:03:16.701Z,6.00
2018-09-17T05:05:44.767Z,6.08
2018-09-17T05:08:13.144Z,5.85
2018-09-17T05:10:41.196Z,5.90
2018-09-17T05:13:09.414Z,5.90
2018-09-17T05:15:37.477Z,5.95
2018-09-17T05:18:05.537Z,5.28
2018-09-17T05:20:33.596Z,5.03
2018-09-17T05:23:01.630Z,4.45
2018-09-17T05:25:29.791Z,3.98
2018-09-17T05:27:57.997Z,4.30
2018-09-17T05:30:26.043Z,4.30
2018-09-17T05:32:54.191Z,4.37
2018-09-17T05:35:22.230Z,4.58
2018-09-17T05:37:50.254Z,4.45
2018-09-17T05:40:18.410Z,4.35
2018-09-17T05:42:46.829Z,4.85
2018-09-17T05:45:15.005Z,4.40
2018-09-17T05:47:43.030Z,4.67
2018-09-17T05:50:11.098Z,4.35
2018-09-17T05:52:39.122Z,3.95
2018-09-17T05:55:07.222Z,4.00
2018-09-17T05:57:35.272Z,4.95
2018-09-17T06:00:03.294Z,4.95
2018-09-17T06:02:31.379Z,4.08
2018-09-17T06:04:59.520Z,4.62
2018-09-17T06:07:27.626Z,4.50
2018-09-17T06:09:55.769Z,4.78
2018-09-17T06:12:23.974Z,4.22
2018-09-17T06:14:52.019Z,4.65
2018-09-17T06:17:20.107Z,4.50
2018-09-17T06:19:48.161Z,4.53
2018-09-17T06:22:16.218Z,4.60
2018-09-17T06:24:44.295Z,4.42
2018-09-17T06:27:12.520Z,5.50
2018-09-17T06:29:40.654Z,4.45
2018-09-17T06:32:08.716Z,4.85
2018-09-17T06:34:36.986Z,5.03
2018-09-17T06:37:05.014Z,4.95
2018-09-17T06:39:33.022Z,4.45
2018-09-17T06:42:01.832Z,4.83
2018-09-17T06:44:29.899Z,4.58
2018-09-17T06:46:57.959Z,4.70
2018-09-17T06:49:26.095Z,4.73
2018-09-17T06:51:54.099Z,4.65
2018-09-17T06:54:22.186Z,3.90
2018-09-17T06:56:50.300Z,4.43
2018-09-17T06:59:18.416Z,4.25
2018-09-17T07:01:46.632Z,3.60
2018-09-17T07:04:14.699Z,3.08
2018-09-17T07:06:42.956Z,3.20
2018-09-17T07:09:11.927Z,3.75
2018-09-17T07:11:39.933Z,4.37
2018-09-17T07:14:08.281Z,3.67
2018-09-17T07:16:36.433Z,3.17
2018-09-17T07:19:04.473Z,3.22
2018-09-17T07:21:32.954Z,3.30
2018-09-17T07:24:01.435Z,3.40
2018-09-17T07:26:29.797Z,3.20
2018-09-17T07:28:58.781Z,3.33
2018-09-17T07:31:27.037Z,3.45
2018-09-17T07:33:55.111Z,3.15
2018-09-17T07:36:23.253Z,4.87
2018-09-17T07:38:51.298Z,4.10
2018-09-17T07:41:19.346Z,3.70
2018-09-17T07:43:48.075Z,3.98
2018-09-17T07:46:16.288Z,3.65
2018-09-17T07:48:44.334Z,3.55
2018-09-17T07:51:12.354Z,3.58
2018-09-17T07:53:40.522Z,3.70
2018-09-17T07:56:08.561Z,3.77
2018-09-17T07:58:36.639Z,3.85
2018-09-17T08:01:04.910Z,3.62
2018-09-17T08:03:32.967Z,3.02
2018-09-17T08:06:01.081Z,3.20
2018-09-17T08:08:29.113Z,3.08
2018-09-17T08:10:57.278Z,3.47
2018-09-17T08:13:25.279Z,2.80
2018-09-17T08:15:53.576Z,2.30
2018-09-17T08:18:21.630Z,2.70
2018-09-17T08:20:49.680Z,2.42
2018-09-17T08:23:17.971Z,2.40
2018-09-17T08:25:46.042Z,2.72
2018-09-17T08:28:14.120Z,3.20
2018-09-17T08:30:42.618Z,2.47
2018-09-17T08:33:10.763Z,2.00
2018-09-17T08:35:38.882Z,2.72
2018-09-17T08:38:07.192Z,2.40
2018-09-17T08:40:35.313Z,2.58
2018-09-17T08:43:03.363Z,3.02
2018-09-17T08:45:31.903Z,2.33
2018-09-17T08:47:59.911Z,2.33
2018-09-17T08:50:27.962Z,2.42
2018-09-17T08:52:56.082Z,2.33
2018-09-17T08:55:29.442Z,2.37
2018-09-17T08:58:03.090Z,2.67
2018-09-17T09:00:36.674Z,2.50
2018-09-17T09:03:10.674Z,2.02
2018-09-17T09:05:42.938Z,2.27
2018-09-17T09:11:25.930Z,2.40
2018-09-17T09:13:56.095Z,1.77
2018-09-17T09:16:24.902Z,2.00
2018-09-17T09:18:52.954Z,1.80
2018-09-17T09:21:20.967Z,2.27
2018-09-17T09:23:50.788Z,1.98
2018-09-17T09:26:18.847Z,2.20
2018-09-17T09:28:46.870Z,1.72
2018-09-17T09:31:15.354Z,1.75
2018-09-17T09:33:43.369Z,1.92
2018-09-17T09:36:11.374Z,1.87
2018-09-17T09:38:39.419Z,2.25
2018-09-17T09:41:07.502Z,2.17
2018-09-17T09:43:35.731Z,2.00
2018-09-17T09:46:03.762Z,2.10
2018-09-17T09:48:31.779Z,1.95
2018-09-17T09:50:59.926Z,1.77
2018-09-17T09:53:27.981Z,1.90
2018-09-17T09:55:56.014Z,1.87
2018-09-17T09:58:24.150Z,2.33
2018-09-17T10:00:57.640Z,1.80
2018-09-17T10:03:31.081Z,1.62
2018-09-17T10:05:59.110Z,1.80
2018-09-17T10:08:27.101Z,2.45
2018-09-17T10:11:00.702Z,2.25
2018-09-17T10:13:34.170Z,2.60
2018-09-17T10:16:07.767Z,3.33
2018-09-17T10:18:41.295Z,2.00
2018-09-17T10:21:09.866Z,4.22
2018-09-17T10:23:37.990Z,1.72
2018-09-17T10:26:06.059Z,2.15
2018-09-17T10:28:34.266Z,1.92
2018-09-17T10:31:02.408Z,3.02
2018-09-17T10:33:30.623Z,1.87
2018-09-17T10:35:58.812Z,1.70
2018-09-17T10:38:27.024Z,1.60
2018-09-17T10:40:55.078Z,1.67
2018-09-17T10:43:23.149Z,1.90
2018-09-17T10:45:51.216Z,1.45
2018-09-17T10:48:19.297Z,1.37
2018-09-17T10:50:47.440Z,1.80
2018-09-17T10:53:15.599Z,2.55
2018-09-17T10:55:43.663Z,1.90
2018-09-17T10:58:11.739Z,2.35
2018-09-17T11:00:39.866Z,2.25
2018-09-17T11:03:07.936Z,3.42
2018-09-17T11:05:36.363Z,1.15
2018-09-17T11:08:05.304Z,2.17
2018-09-17T11:10:33.522Z,1.32
2018-09-17T11:13:01.620Z,2.30
2018-09-17T11:15:35.123Z,2.75
2018-09-17T11:18:03.407Z,1.65
2018-09-17T11:20:31.465Z,1.85
2018-09-17T11:22:59.538Z,2.87
2018-09-17T11:25:27.581Z,1.73
2018-09-17T11:27:55.623Z,1.83
2018-09-17T11:30:23.664Z,2.37
2018-09-17T11:32:52.228Z,1.53
2018-09-17T11:35:20.287Z,2.58
2018-09-17T11:37:48.611Z,1.50
2018-09-17T11:40:16.671Z,1.37
2018-09-17T11:42:44.726Z,1.35
2018-09-17T11:45:12.783Z,1.73
2018-09-17T11:47:40.847Z,1.40
2018-09-17T11:50:08.972Z,1.30
2018-09-17T11:52:36.977Z,1.62
2018-09-17T11:55:05.009Z,1.40
2018-09-17T11:57:33.018Z,1.20
2018-09-17T12:00:00.999Z,1.50
2018-09-17T12:02:35.689Z,1.35
2018-09-17T12:05:08.853Z,1.22
2018-09-17T12:07:41.119Z,1.20
2018-09-17T12:10:09.674Z,1.40
2018-09-17T12:12:38.352Z,1.52
2018-09-17T12:15:06.679Z,1.22
2018-09-17T12:17:35.247Z,1.25
2018-09-17T12:20:03.417Z,1.20
2018-09-17T12:22:31.561Z,1.50
2018-09-17T12:24:59.630Z,1.40
2018-09-17T12:27:27.633Z,1.47
2018-09-17T12:29:55.662Z,1.75
2018-09-17T12:32:23.683Z,1.17
2018-09-17T12:34:51.715Z,1.47
2018-09-17T12:37:19.942Z,3.15
2018-09-17T12:39:47.986Z,1.40
2018-09-17T12:42:16.014Z,1.37
2018-09-17T12:44:44.109Z,1.47
2018-09-17T12:47:12.275Z,1.35
2018-09-17T12:49:40.507Z,1.47
2018-09-17T12:52:08.934Z,1.47
2018-09-17T12:54:36.981Z,1.30
2018-09-17T12:57:05.030Z,1.40
2018-09-17T12:59:33.069Z,1.60
2018-09-17T13:02:01.223Z,1.55
2018-09-17T13:04:29.254Z,1.60
2018-09-17T13:06:57.282Z,1.60
2018-09-17T13:09:25.967Z,2.15
2018-09-17T13:11:54.016Z,1.98
2018-09-17T13:14:22.146Z,1.80
2018-09-17T13:16:50.161Z,1.37
2018-09-17T13:19:18.141Z,1.45
2018-09-17T13:21:46.328Z,1.37
2018-09-17T13:24:14.351Z,1.40
2018-09-17T13:26:42.357Z,1.57
2018-09-17T13:29:10.921Z,1.37
2018-09-17T13:31:38.956Z,1.30
2018-09-17T13:34:06.951Z,1.45
2018-09-17T13:36:35.183Z,1.65
2018-09-17T13:39:03.414Z,1.57
2018-09-17T13:41:31.486Z,1.45
2018-09-17T13:43:59.586Z,1.60
2018-09-17T13:46:27.624Z,1.25
2018-09-17T13:48:55.715Z,1.72
2018-09-17T13:51:23.776Z,1.17
2018-09-17T13:53:51.829Z,1.65
2018-09-17T13:56:19.823Z,1.55
2018-09-17T13:58:48.620Z,2.12
2018-09-17T14:01:16.667Z,2.25
2018-09-17T14:03:44.670Z,1.22
2018-09-17T14:06:13.581Z,1.02
2018-09-17T14:08:41.661Z,1.62
2018-09-17T14:11:09.898Z,1.50
2018-09-17T14:13:37.975Z,1.60
2018-09-17T14:16:07.039Z,1.62
2018-09-17T14:18:35.316Z,1.35
2018-09-17T14:21:03.366Z,1.92
2018-09-17T14:23:31.560Z,1.55
2018-09-17T14:25:59.659Z,1.67
2018-09-17T14:28:27.710Z,1.30
2018-09-17T14:30:55.750Z,1.57
2018-09-17T14:33:29.325Z,1.17
2018-09-17T14:35:57.349Z,1.40
2018-09-17T14:38:25.628Z,1.72
2018-09-17T14:40:54.016Z,1.60
2018-09-17T14:43:22.160Z,1.98
2018-09-17T14:45:50.143Z,2.40
2018-09-17T14:48:18.627Z,1.47
2018-09-17T14:50:46.685Z,1.45
2018-09-17T14:53:14.770Z,1.30
2018-09-17T14:55:42.810Z,1.50
2018-09-17T14:58:11.516Z,1.37
2018-09-17T15:00:39.494Z,1.20
2018-09-17T15:03:07.528Z,1.60
2018-09-17T15:05:35.541Z,1.35
2018-09-17T15:08:03.702Z,1.37
2018-09-17T15:10:32.212Z,1.05
2018-09-17T15:13:00.150Z,1.30
2018-09-17T15:15:28.248Z,1.50
2018-09-17T15:17:56.238Z,1.20
2018-09-17T15:20:24.337Z,1.70
2018-09-17T15:22:52.349Z,1.10
2018-09-17T15:25:20.737Z,1.27
2018-09-17T15:27:48.940Z,1.67
2018-09-17T15:30:17.014Z,1.50
2018-09-17T15:32:45.099Z,1.47
2018-09-17T15:35:13.128Z,1.50
2018-09-17T15:37:41.170Z,1.87
2018-09-17T15:40:09.309Z,2.17
2018-09-17T15:42:37.328Z,1.65
2018-09-17T15:45:05.485Z,2.52
2018-09-17T15:47:33.969Z,3.20
2018-09-17T15:50:02.154Z,1.77
2018-09-17T15:52:30.345Z,1.98
2018-09-17T15:54:58.434Z,2.00
2018-09-17T15:57:26.933Z,2.47
2018-09-17T15:59:55.104Z,1.50
2018-09-17T16:02:23.463Z,2.40
2018-09-17T16:04:51.520Z,1.55
2018-09-17T16:07:19.627Z,2.22
2018-09-17T16:09:47.853Z,2.33
2018-09-17T16:12:15.857Z,1.77
2018-09-17T16:14:44.602Z,3.40
2018-09-17T16:17:12.711Z,2.67
2018-09-17T16:19:40.712Z,2.20
2018-09-17T16:24:59.223Z,2.62
2018-09-17T16:27:27.590Z,1.90
2018-09-17T16:29:55.598Z,1.80
2018-09-17T16:32:23.631Z,1.75
2018-09-17T16:34:51.807Z,1.98
2018-09-17T16:37:19.795Z,1.60
2018-09-17T16:39:47.822Z,1.60
2018-09-17T16:42:15.827Z,2.22
2018-09-17T16:44:43.856Z,2.80
2018-09-17T16:47:12.099Z,2.42
2018-09-17T16:49:40.013Z,4.30
2018-09-17T16:52:08.092Z,5.92
2018-09-17T16:54:36.660Z,15.53
2018-09-17T16:57:04.697Z,13.05
2018-09-17T16:59:32.763Z,10.58
2018-09-17T17:02:00.839Z,11.50
2018-09-17T17:04:28.878Z,11.10
2018-09-17T17:06:56.911Z,12.05
2018-09-17T17:09:24.961Z,6.15
2018-09-17T17:11:53.169Z,7.62
2018-09-17T17:14:21.134Z,6.35
2018-09-17T17:16:49.710Z,6.78
2018-09-17T17:19:17.842Z,5.75
2018-09-17T17:21:45.901Z,6.67
2018-09-17T17:24:14.143Z,3.60
2018-09-17T17:26:42.357Z,5.22
2018-09-17T17:29:10.797Z,8.38
2018-09-17T17:31:38.847Z,6.95
2018-09-17T17:34:06.905Z,6.90
2018-09-17T17:36:35.184Z,4.97
2018-09-17T17:39:03.307Z,4.10
2018-09-17T17:41:31.391Z,4.35
2018-09-17T17:43:59.453Z,5.25
2018-09-17T17:46:28.010Z,5.00
2018-09-17T17:48:55.943Z,4.87
2018-09-17T17:51:24.028Z,5.75
2018-09-17T17:53:52.224Z,3.95
2018-09-17T17:56:20.338Z,4.78
2018-09-17T17:58:48.363Z,4.72
2018-09-17T18:01:16.487Z,5.37
2018-09-17T18:03:44.494Z,3.70
2018-09-17T18:06:12.491Z,4.30
2018-09-17T18:08:40.535Z,4.12
2018-09-17T18:11:08.568Z,5.62
2018-09-17T18:13:36.742Z,5.83
2018-09-17T18:16:05.176Z,5.55
2018-09-17T18:18:33.192Z,4.95
2018-09-17T18:21:01.231Z,5.00
2018-09-17T18:23:29.298Z,5.95
2018-09-17T18:25:57.310Z,5.00
2018-09-17T18:28:25.319Z,5.12
2018-09-17T18:30:53.607Z,6.45
2018-09-17T18:33:21.757Z,5.67
2018-09-17T18:35:49.745Z,6.75
2018-09-17T18:38:17.810Z,5.47
2018-09-17T18:40:45.858Z,6.20
2018-09-17T18:43:13.866Z,6.95
2018-09-17T18:45:42.078Z,6.22
2018-09-17T18:48:10.121Z,5.83
2018-09-17T18:50:38.126Z,6.17
2018-09-17T18:53:06.475Z,6.30
2018-09-17T18:55:34.519Z,6.62
2018-09-17T18:58:02.592Z,6.65
2018-09-17T19:00:30.668Z,5.90
2018-09-17T19:02:58.884Z,5.72
2018-09-17T19:05:26.831Z,6.37
2018-09-17T19:07:54.878Z,5.40
2018-09-17T19:10:22.858Z,5.85
2018-09-17T19:12:50.884Z,6.10
2018-09-17T19:15:24.247Z,5.83
2018-09-17T19:17:52.400Z,6.87
2018-09-17T19:20:20.619Z,6.17
2018-09-17T19:24:16.552Z,5.50
2018-09-17T19:26:44.566Z,6.37
2018-09-17T19:29:19.298Z,6.62
2018-09-17T19:31:47.894Z,6.75
2018-09-17T19:34:16.170Z,6.67
2018-09-17T19:36:44.840Z,6.60
2018-09-17T19:39:18.272Z,7.37
2018-09-17T19:41:46.434Z,6.28
2018-09-17T19:44:14.434Z,6.42
2018-09-17T19:46:42.432Z,6.85
2018-09-17T19:49:11.195Z,7.55
2018-09-17T19:51:44.706Z,7.35
2018-09-17T19:54:12.824Z,7.37
2018-09-17T19:56:40.849Z,7.45
2018-09-17T19:59:14.335Z,7.67
2018-09-17T20:01:42.362Z,7.10
2018-09-17T20:04:15.824Z,7.12
2018-09-17T20:06:44.077Z,6.37
2018-09-17T20:09:12.297Z,6.72
2018-09-17T20:11:40.766Z,7.17
2018-09-17T20:14:08.802Z,6.90
2018-09-17T20:16:36.835Z,6.15
2018-09-17T20:19:04.912Z,5.92
2018-09-17T20:21:33.058Z,6.50
2018-09-17T20:24:01.106Z,6.08
2018-09-17T20:26:29.154Z,6.60
2018-09-17T20:28:57.199Z,6.08
2018-09-17T20:31:25.211Z,5.95
2018-09-17T20:33:53.973Z,6.25
2018-09-17T20:36:22.042Z,6.72
2018-09-17T20:38:50.090Z,6.75
2018-09-17T20:41:18.135Z,6.05
2018-09-17T20:43:46.208Z,6.17
2018-09-17T20:46:14.253Z,5.95
2018-09-17T20:48:42.329Z,6.63
2018-09-17T20:51:10.910Z,5.90
2018-09-17T20:53:38.928Z,6.53
2018-09-17T20:56:07.056Z,5.78
2018-09-17T20:58:35.052Z,6.20
2018-09-17T21:01:03.158Z,6.23
2018-09-17T21:03:31.111Z,6.13
2018-09-17T21:05:59.125Z,5.77
2018-09-17T21:08:27.167Z,6.00
2018-09-17T21:10:55.252Z,6.63
2018-09-17T21:13:24.181Z,5.67
2018-09-17T21:15:52.146Z,6.20
2018-09-17T21:18:20.477Z,5.35
2018-09-17T21:20:48.530Z,5.78
2018-09-17T21:23:16.560Z,7.12
2018-09-17T21:25:44.649Z,6.53
2018-09-17T21:28:12.692Z,6.10
2018-09-17T21:30:40.714Z,6.40
2018-09-17T21:33:08.764Z,5.95
2018-09-17T21:35:36.935Z,5.83
2018-09-17T21:38:05.007Z,6.62
2018-09-17T21:40:33.073Z,5.85
2018-09-17T21:43:01.096Z,7.20
2018-09-17T21:45:29.110Z,5.90
2018-09-17T21:47:57.494Z,5.97
2018-09-17T21:50:25.511Z,7.17
2018-09-17T21:52:53.575Z,6.70
2018-09-17T21:55:21.727Z,5.65
2018-09-17T21:57:49.778Z,6.40
2018-09-17T22:00:18.856Z,6.37
2018-09-17T22:02:47.103Z,6.30
2018-09-17T22:05:15.130Z,6.35
2018-09-17T22:07:43.154Z,5.62
2018-09-17T22:10:11.219Z,7.08
2018-09-17T22:12:39.238Z,5.47
2018-09-17T22:15:07.254Z,6.65
2018-09-17T22:17:35.295Z,6.00
2018-09-17T22:20:03.307Z,6.47
2018-09-17T22:22:31.523Z,6.25
2018-09-17T22:24:59.994Z,6.45
2018-09-17T22:27:28.007Z,5.97
2018-09-17T22:29:56.043Z,6.80
2018-09-17T22:32:24.109Z,6.40
2018-09-17T22:34:52.119Z,6.33
2018-09-17T22:37:20.351Z,5.60
2018-09-17T22:39:48.373Z,6.00
2018-09-17T22:42:16.621Z,6.30
2018-09-17T22:44:44.770Z,5.75
2018-09-17T22:47:12.907Z,5.33
2018-09-17T22:49:40.938Z,6.10
2018-09-17T22:52:08.978Z,7.28
2018-09-17T22:54:37.739Z,6.22
2018-09-17T22:57:06.705Z,6.95
2018-09-17T22:59:34.724Z,6.95
2018-09-17T23:02:03.387Z,7.22
2018-09-17T23:04:31.402Z,6.62
2018-09-17T23:06:59.455Z,6.17
2018-09-17T23:09:27.491Z,5.75
2018-09-17T23:11:55.506Z,5.62
2018-09-17T23:14:23.584Z,5.05
2018-09-17T23:16:51.631Z,5.12
2018-09-17T23:19:19.630Z,5.20
2018-09-17T23:21:47.680Z,5.85
2018-09-17T23:24:15.724Z,5.62
2018-09-17T23:26:43.754Z,5.20
2018-09-17T23:29:11.814Z,5.67
2018-09-17T23:31:39.974Z,5.20
2018-09-17T23:34:08.039Z,6.33
2018-09-17T23:36:36.114Z,5.60
2018-09-17T23:39:08.080Z,4.90
2018-09-17T23:41:36.247Z,4.62
2018-09-17T23:44:04.275Z,5.37
2018-09-17T23:46:32.315Z,5.35
2018-09-17T23:49:01.207Z,5.37
2018-09-17T23:51:29.263Z,4.40
2018-09-17T23:53:57.734Z,5.35
2018-09-17T23:56:25.799Z,4.65
2018-09-17T23:58:53.829Z,4.67
